createdAt,value
2018-08-19T00:01:31.591Z,95159.86
2018-08-19T00:04:00.565Z,95155.03
2018-08-19T00:06:29.399Z,95152.63
2018-08-19T00:09:02.342Z,95148.88
2018-08-19T00:11:31.224Z,95155.29
2018-08-19T00:14:00.039Z,95151.28
2018-08-19T00:16:29.238Z,95148.89
2018-08-19T00:18:58.074Z,95152.59
2018-08-19T00:21:26.951Z,95154.16
2018-08-19T00:23:55.792Z,95153.06
2018-08-19T00:26:24.594Z,95152.23
2018-08-19T00:28:53.430Z,95150.88
2018-08-19T00:31:22.218Z,95148.94
2018-08-19T00:33:51.115Z,95153.72
2018-08-19T00:36:26.891Z,95150.24
2018-08-19T00:38:56.520Z,95151.55
2018-08-19T00:41:25.543Z,95151.28
2018-08-19T00:43:54.398Z,95147.81
2018-08-19T00:46:32.101Z,95145.64
2018-08-19T00:49:01.603Z,95144.31
2018-08-19T00:51:30.446Z,95143.73
2018-08-19T00:53:59.266Z,95144.25
2018-08-19T00:56:28.095Z,95144.50
2018-08-19T00:58:57.003Z,95149.00
2018-08-19T01:01:32.962Z,95143.12
2018-08-19T01:04:01.842Z,95145.50
2018-08-19T01:06:33.744Z,95148.70
2018-08-19T01:09:02.585Z,95144.42
2018-08-19T01:11:36.637Z,95152.39
2018-08-19T01:14:09.761Z,95149.45
2018-08-19T01:16:38.602Z,95148.64
2018-08-19T01:19:08.113Z,95143.00
2018-08-19T01:21:37.365Z,95142.47
2018-08-19T01:24:10.882Z,95137.36
2018-08-19T01:26:41.083Z,95138.70
2018-08-19T01:29:11.111Z,95137.86
2018-08-19T01:31:40.027Z,95140.25
2018-08-19T01:34:11.118Z,95149.54
2018-08-19T01:36:39.995Z,95143.09
2018-08-19T01:39:11.785Z,95145.23
2018-08-19T01:41:41.392Z,95143.62
2018-08-19T01:44:14.781Z,95142.29
2018-08-19T01:46:48.156Z,95136.16
2018-08-19T01:49:16.959Z,95138.02
2018-08-19T01:51:46.490Z,95140.67
2018-08-19T01:54:20.540Z,95135.31
2018-08-19T01:56:56.680Z,95139.00
2018-08-19T01:59:34.661Z,95144.61
2018-08-19T02:02:05.104Z,95145.94
2018-08-19T02:04:35.688Z,95143.90
2018-08-19T02:07:04.632Z,95148.42
2018-08-19T02:09:33.504Z,95149.82
2018-08-19T02:12:02.360Z,95153.28
2018-08-19T02:14:31.267Z,95147.40
2018-08-19T02:17:00.188Z,95150.31
2018-08-19T02:19:29.007Z,95148.95
2018-08-19T02:21:57.796Z,95149.16
2018-08-19T02:24:26.635Z,95155.26
2018-08-19T02:26:55.466Z,95147.41
2018-08-19T02:29:33.450Z,95154.31
2018-08-19T02:32:03.454Z,95154.56
2018-08-19T02:34:37.275Z,95152.70
2018-08-19T02:37:13.708Z,95153.48
2018-08-19T02:39:44.562Z,95146.82
2018-08-19T02:42:25.306Z,95150.45
2018-08-19T02:44:58.479Z,95150.41
2018-08-19T02:47:27.632Z,95155.70
2018-08-19T02:49:56.454Z,95156.75
2018-08-19T02:52:28.482Z,95158.28
2018-08-19T02:54:59.363Z,95155.59
2018-08-19T02:57:29.098Z,95153.45
2018-08-19T02:59:58.796Z,95161.40
2018-08-19T03:02:34.601Z,95153.13
2018-08-19T03:05:06.553Z,95154.42
2018-08-19T03:07:35.422Z,95162.92
2018-08-19T03:10:09.811Z,95151.96
2018-08-19T03:12:38.987Z,95155.09
2018-08-19T03:15:09.076Z,95158.56
2018-08-19T03:17:38.185Z,95161.71
2018-08-19T03:20:09.729Z,95158.77
2018-08-19T03:22:38.575Z,95165.14
2018-08-19T03:25:08.208Z,95164.56
2018-08-19T03:27:37.071Z,95165.80
2018-08-19T03:30:10.798Z,95169.98
2018-08-19T03:32:49.367Z,95169.80
2018-08-19T03:35:19.989Z,95165.80
2018-08-19T03:37:51.263Z,95175.69
2018-08-19T03:40:20.775Z,95178.95
2018-08-19T03:42:49.567Z,95181.38
2018-08-19T03:45:19.012Z,95186.66
2018-08-19T03:47:48.421Z,95179.67
2018-08-19T03:50:22.072Z,95183.11
2018-08-19T03:52:51.750Z,95187.91
2018-08-19T03:55:25.926Z,95187.08
2018-08-19T03:57:59.530Z,95187.08
2018-08-19T04:00:30.394Z,95192.70
2018-08-19T04:02:59.188Z,95190.36
2018-08-19T04:05:42.166Z,95188.23
2018-08-19T04:08:12.634Z,95190.84
2018-08-19T04:10:42.523Z,95193.30
2018-08-19T04:13:45.336Z,95196.81
2018-08-19T04:16:14.242Z,95197.99
2018-08-19T04:18:45.207Z,95197.23
2018-08-19T04:21:15.277Z,95196.00
2018-08-19T04:23:47.108Z,95202.50
2018-08-19T04:26:15.904Z,95202.94
2018-08-19T04:28:45.563Z,95208.08
2018-08-19T04:31:19.754Z,95212.91
2018-08-19T04:33:49.267Z,95209.41
2018-08-19T04:36:19.432Z,95207.04
2018-08-19T04:38:48.238Z,95207.94
2018-08-19T04:41:17.195Z,95206.61
2018-08-19T04:43:46.705Z,95206.59
2018-08-19T04:46:15.571Z,95201.09
2018-08-19T04:48:46.259Z,95200.26
2018-08-19T04:51:15.082Z,95197.84
2018-08-19T04:53:43.942Z,95202.90
2018-08-19T04:56:12.773Z,95200.98
2018-08-19T04:58:41.610Z,95204.93
2018-08-19T05:01:11.013Z,95209.03
2018-08-19T05:03:39.883Z,95211.08
2018-08-19T05:06:08.703Z,95206.83
2018-08-19T05:08:37.560Z,95212.06
2018-08-19T05:11:06.422Z,95213.24
2018-08-19T05:13:35.270Z,95213.19
2018-08-19T05:16:04.127Z,95209.78
2018-08-19T05:18:32.965Z,95211.09
2018-08-19T05:21:17.066Z,95212.44
2018-08-19T05:23:46.282Z,95211.83
2018-08-19T05:26:15.479Z,95210.61
2018-08-19T05:28:53.134Z,95213.38
2018-08-19T05:31:22.019Z,95211.81
2018-08-19T05:33:50.807Z,95216.97
2018-08-19T05:36:19.751Z,95212.98
2018-08-19T05:38:48.678Z,95214.31
2018-08-19T05:41:17.530Z,95212.72
2018-08-19T05:43:52.930Z,95218.36
2018-08-19T05:46:21.708Z,95220.80
2018-08-19T05:48:51.509Z,95215.70
2018-08-19T05:51:20.307Z,95219.43
2018-08-19T05:53:53.684Z,95226.69
2018-08-19T05:56:22.706Z,95225.08
2018-08-19T05:59:28.829Z,95227.75
2018-08-19T06:01:57.774Z,95228.28
2018-08-19T06:04:26.783Z,95228.85
2018-08-19T06:06:59.986Z,95225.06
2018-08-19T06:09:28.859Z,95222.42
2018-08-19T06:11:57.783Z,95225.90
2018-08-19T06:14:26.748Z,95232.03
2018-08-19T06:16:56.082Z,95225.89
2018-08-19T06:19:25.082Z,95224.01
2018-08-19T06:21:57.822Z,95224.55
2018-08-19T06:24:27.145Z,95232.57
2018-08-19T06:26:56.047Z,95236.84
2018-08-19T06:29:38.928Z,95235.26
2018-08-19T06:32:07.852Z,95234.19
2018-08-19T06:34:36.729Z,95230.17
2018-08-19T06:37:06.169Z,95228.05
2018-08-19T06:39:35.491Z,95233.39
2018-08-19T06:42:04.344Z,95235.25
2018-08-19T06:44:33.142Z,95232.83
2018-08-19T06:47:02.062Z,95232.83
2018-08-19T06:49:31.726Z,95231.22
2018-08-19T06:52:00.509Z,95229.89
2018-08-19T06:54:29.347Z,95225.87
2018-08-19T06:56:58.821Z,95231.23
2018-08-19T06:59:27.640Z,95226.66
2018-08-19T07:01:56.474Z,95215.13
2018-08-19T07:04:25.291Z,95219.63
2018-08-19T07:06:54.104Z,95219.02
2018-08-19T07:09:22.921Z,95223.06
2018-08-19T07:12:00.532Z,95224.64
2018-08-19T07:14:30.508Z,95231.83
2018-08-19T07:17:00.292Z,95228.80
2018-08-19T07:19:29.116Z,95227.45
2018-08-19T07:22:03.064Z,95225.56
2018-08-19T07:24:33.175Z,95224.50
2018-08-19T07:27:02.580Z,95217.75
2018-08-19T07:29:32.205Z,95213.39
2018-08-19T07:32:01.593Z,95218.70
2018-08-19T07:34:30.408Z,95225.45
2018-08-19T07:36:59.323Z,95219.52
2018-08-19T07:39:28.615Z,95223.22
2018-08-19T07:41:57.616Z,95222.08
2018-08-19T07:44:26.499Z,95224.97
2018-08-19T07:46:55.574Z,95224.96
2018-08-19T07:49:24.412Z,95226.53
2018-08-19T07:51:53.268Z,95224.63
2018-08-19T07:54:22.088Z,95222.34
2018-08-19T07:56:50.924Z,95223.66
2018-08-19T07:59:19.793Z,95217.11
2018-08-19T08:01:49.138Z,95222.16
2018-08-19T08:04:18.158Z,95222.09
2018-08-19T08:06:46.987Z,95222.08
2018-08-19T08:09:17.545Z,95225.52
2018-08-19T08:11:46.351Z,95217.16
2018-08-19T08:14:15.193Z,95222.55
2018-08-19T08:16:49.277Z,95214.48
2018-08-19T08:19:18.144Z,95214.91
2018-08-19T08:21:46.955Z,95215.16
2018-08-19T08:24:15.782Z,95216.41
2018-08-19T08:26:51.648Z,95212.27
2018-08-19T08:29:20.675Z,95211.18
2018-08-19T08:31:54.622Z,95211.89
2018-08-19T08:34:23.866Z,95207.27
2018-08-19T08:36:56.954Z,95211.84
2018-08-19T08:39:25.900Z,95212.88
2018-08-19T08:41:58.444Z,95205.49
2018-08-19T08:44:27.574Z,95206.11
2018-08-19T08:46:58.780Z,95207.61
2018-08-19T08:49:32.798Z,95206.41
2018-08-19T08:52:03.464Z,95214.77
2018-08-19T08:54:33.157Z,95205.34
2018-08-19T08:57:01.975Z,95202.34
2018-08-19T08:59:30.882Z,95199.83
2018-08-19T09:01:59.740Z,95200.08
2018-08-19T09:04:28.906Z,95193.87
2018-08-19T09:06:57.708Z,95196.19
2018-08-19T09:09:26.495Z,95196.09
2018-08-19T09:11:55.325Z,95189.98
2018-08-19T09:14:24.124Z,95196.55
2018-08-19T09:16:53.016Z,95199.34
2018-08-19T09:19:21.834Z,95192.37
2018-08-19T09:21:51.195Z,95193.91
2018-08-19T09:24:20.431Z,95186.36
2018-08-19T09:26:53.079Z,95186.37
2018-08-19T09:29:21.877Z,95186.16
2018-08-19T09:31:50.690Z,95186.66
2018-08-19T09:34:19.463Z,95185.02
2018-08-19T09:36:48.291Z,95177.63
2018-08-19T09:39:17.498Z,95184.18
2018-08-19T09:41:46.415Z,95175.48
2018-08-19T09:44:15.271Z,95184.69
2018-08-19T09:46:44.126Z,95177.41
2018-08-19T09:49:12.890Z,95173.36
2018-08-19T09:51:41.665Z,95174.06
2018-08-19T09:54:10.722Z,95176.16
2018-08-19T09:56:39.753Z,95174.70
2018-08-19T09:59:09.260Z,95166.41
2018-08-19T10:01:42.263Z,95161.22
2018-08-19T10:04:22.550Z,95162.14
2018-08-19T10:07:04.347Z,95153.02
2018-08-19T10:09:33.169Z,95158.83
2018-08-19T10:12:01.960Z,95155.03
2018-08-19T10:14:30.803Z,95152.47
2018-08-19T10:16:59.675Z,95146.94
2018-08-19T10:19:28.478Z,95145.83
2018-08-19T10:21:57.381Z,95142.45
2018-08-19T10:24:31.740Z,95152.03
2018-08-19T10:27:01.018Z,95143.11
2018-08-19T10:29:29.921Z,95149.88
2018-08-19T10:32:00.941Z,95141.67
2018-08-19T10:34:37.030Z,95134.09
2018-08-19T10:37:06.967Z,95139.88
2018-08-19T10:39:35.706Z,95139.27
2018-08-19T10:42:20.456Z,95139.38
2018-08-19T10:44:51.339Z,95142.97
2018-08-19T10:47:21.102Z,95140.06
2018-08-19T10:49:56.394Z,95139.38
2018-08-19T10:52:28.420Z,95131.28
2018-08-19T10:54:58.727Z,95134.48
2018-08-19T10:57:27.548Z,95127.72
2018-08-19T10:59:57.646Z,95125.02
2018-08-19T11:02:26.693Z,95116.69
2018-08-19T11:04:57.105Z,95118.63
2018-08-19T11:07:26.409Z,95114.84
2018-08-19T11:10:11.640Z,95118.64
2018-08-19T11:12:40.387Z,95120.98
2018-08-19T11:15:24.307Z,95116.99
2018-08-19T11:17:53.112Z,95110.97
2018-08-19T11:20:26.075Z,95109.92
2018-08-19T11:22:55.561Z,95106.73
2018-08-19T11:25:28.034Z,95103.79
2018-08-19T11:27:57.844Z,95099.84
2018-08-19T11:30:27.072Z,95095.68
2018-08-19T11:32:55.914Z,95089.12
2018-08-19T11:35:27.647Z,95091.82
2018-08-19T11:37:56.442Z,95088.56
2018-08-19T11:40:25.309Z,95083.61
2018-08-19T11:42:54.060Z,95083.45
2018-08-19T11:45:22.858Z,95079.78
2018-08-19T11:48:01.871Z,95074.69
2018-08-19T11:50:30.877Z,95075.91
2018-08-19T11:52:59.682Z,95073.52
2018-08-19T11:55:28.499Z,95069.95
2018-08-19T11:57:57.551Z,95070.37
2018-08-19T12:00:30.844Z,95065.02
2018-08-19T12:02:59.890Z,95066.23
2018-08-19T12:05:28.679Z,95062.63
2018-08-19T12:08:00.853Z,95061.19
2018-08-19T12:10:29.631Z,95055.55
2018-08-19T12:13:00.402Z,95055.30
2018-08-19T12:15:29.186Z,95056.89
2018-08-19T12:17:57.963Z,95053.84
2018-08-19T12:20:31.694Z,95052.55
2018-08-19T12:23:00.578Z,95041.33
2018-08-19T12:25:29.428Z,95042.03
2018-08-19T12:27:58.274Z,95046.55
2018-08-19T12:30:27.996Z,95039.55
2018-08-19T12:33:31.466Z,95037.48
2018-08-19T12:36:00.223Z,95038.49
2018-08-19T12:38:29.047Z,95043.89
2018-08-19T12:40:57.864Z,95034.83
2018-08-19T12:43:27.118Z,95032.98
2018-08-19T12:45:55.993Z,95036.84
2018-08-19T12:48:24.734Z,95037.33
2018-08-19T12:50:58.772Z,95031.22
2018-08-19T12:53:27.595Z,95029.70
2018-08-19T12:55:56.548Z,95029.97
2018-08-19T12:58:25.412Z,95019.62
2018-08-19T13:00:54.565Z,95026.75
2018-08-19T13:03:26.737Z,95041.77
2018-08-19T13:06:04.411Z,95052.64
2018-08-19T13:08:33.207Z,95056.83
2018-08-19T13:11:03.961Z,95060.13
2018-08-19T13:13:34.007Z,95059.19
2018-08-19T13:16:02.895Z,95058.99
2018-08-19T13:18:36.854Z,95047.52
2018-08-19T13:21:10.965Z,95063.04
2018-08-19T13:23:39.807Z,95056.19
2018-08-19T13:26:08.633Z,95072.92
2018-08-19T13:28:39.336Z,95069.05
2018-08-19T13:31:08.667Z,95078.98
2018-08-19T13:33:37.566Z,95084.05
2018-08-19T13:36:06.510Z,95083.05
2018-08-19T13:38:37.726Z,95072.73
2018-08-19T13:41:07.895Z,95064.28
2018-08-19T13:43:38.147Z,95063.48
2018-08-19T13:46:07.099Z,95057.50
2018-08-19T13:48:35.915Z,95056.98
2018-08-19T13:51:05.170Z,95055.59
2018-08-19T13:53:34.009Z,95054.72
2018-08-19T13:56:02.934Z,95048.99
2018-08-19T13:58:31.776Z,95049.88
2018-08-19T14:01:00.631Z,95045.33
2018-08-19T14:03:29.399Z,95038.13
2018-08-19T14:05:58.227Z,95038.33
2018-08-19T14:08:26.994Z,95038.80
2018-08-19T14:10:55.823Z,95041.63
2018-08-19T14:13:24.634Z,95034.21
2018-08-19T14:15:53.520Z,95036.03
2018-08-19T14:18:22.316Z,95029.41
2018-08-19T14:20:51.207Z,95032.86
2018-08-19T14:23:20.019Z,95029.66
2018-08-19T14:25:48.808Z,95028.81
2018-08-19T14:28:17.566Z,95025.58
2018-08-19T14:30:46.430Z,95024.70
2018-08-19T14:33:15.414Z,95021.78
2018-08-19T14:35:44.223Z,95021.11
2018-08-19T14:38:13.087Z,95015.72
2018-08-19T14:40:41.958Z,95023.05
2018-08-19T14:43:10.806Z,95015.94
2018-08-19T14:45:40.400Z,95022.63
2018-08-19T14:48:09.264Z,95011.89
2018-08-19T14:50:38.106Z,95018.75
2018-08-19T14:53:07.015Z,95016.03
2018-08-19T14:55:35.813Z,95007.72
2018-08-19T14:58:05.044Z,95005.50
2018-08-19T15:00:34.243Z,95009.66
2018-08-19T15:03:03.027Z,95008.66
2018-08-19T15:05:32.047Z,95003.27
2018-08-19T15:08:06.835Z,94996.98
2018-08-19T15:10:35.687Z,94998.37
2018-08-19T15:13:04.505Z,94994.15
2018-08-19T15:15:33.322Z,94993.65
2018-08-19T15:18:02.358Z,94991.70
2018-08-19T15:20:33.798Z,94999.29
2018-08-19T15:23:14.260Z,94994.25
2018-08-19T15:25:43.428Z,94990.11
2018-08-19T15:28:12.221Z,94987.76
2018-08-19T15:30:41.920Z,94988.77
2018-08-19T15:33:11.779Z,94990.28
2018-08-19T15:35:41.006Z,94989.58
2018-08-19T15:38:10.279Z,94991.77
2018-08-19T15:40:41.573Z,94985.53
2018-08-19T15:43:11.643Z,94982.97
2018-08-19T15:45:41.376Z,94985.28
2018-08-19T15:48:10.181Z,94991.61
2018-08-19T15:50:39.042Z,94984.15
2018-08-19T15:53:08.853Z,94984.23
2018-08-19T15:55:38.158Z,94981.72
2018-08-19T15:58:07.262Z,94980.24
2018-08-19T16:00:38.771Z,94981.08
2018-08-19T16:03:08.481Z,94987.02
2018-08-19T16:05:37.266Z,94983.23
2018-08-19T16:08:06.693Z,94982.43
2018-08-19T16:10:35.543Z,94988.57
2018-08-19T16:13:08.858Z,94990.90
2018-08-19T16:15:37.729Z,94991.91
2018-08-19T16:18:06.770Z,95000.48
2018-08-19T16:20:35.643Z,95001.22
2018-08-19T16:23:04.437Z,95000.66
2018-08-19T16:25:33.391Z,95001.33
2018-08-19T16:28:02.255Z,94996.53
2018-08-19T16:30:31.110Z,95000.58
2018-08-19T16:32:59.931Z,95007.86
2018-08-19T16:35:28.706Z,95004.44
2018-08-19T16:37:57.543Z,95010.45
2018-08-19T16:40:26.380Z,95011.91
2018-08-19T16:42:55.171Z,95022.30
2018-08-19T16:45:24.006Z,95020.77
2018-08-19T16:47:52.793Z,95019.53
2018-08-19T16:50:21.747Z,95027.69
2018-08-19T16:52:50.709Z,95026.30
2018-08-19T16:55:19.580Z,95034.95
2018-08-19T16:57:48.396Z,95033.21
2018-08-19T17:00:17.195Z,95032.55
2018-08-19T17:02:46.095Z,95035.81
2018-08-19T17:05:31.876Z,95036.46
2018-08-19T17:08:00.782Z,95038.00
2018-08-19T17:10:30.193Z,95040.81
2018-08-19T17:12:59.688Z,95042.22
2018-08-19T17:15:28.872Z,95037.48
2018-08-19T17:17:57.794Z,95034.91
2018-08-19T17:20:26.658Z,95036.28
2018-08-19T17:22:55.463Z,95039.16
2018-08-19T17:25:24.222Z,95037.30
2018-08-19T17:27:53.037Z,95043.27
2018-08-19T17:30:21.831Z,95042.81
2018-08-19T17:33:03.016Z,95041.83
2018-08-19T17:35:31.965Z,95039.28
2018-08-19T17:38:00.807Z,95043.62
2018-08-19T17:40:31.684Z,95043.64
2018-08-19T17:43:01.130Z,95046.72
2018-08-19T17:45:29.988Z,95045.17
2018-08-19T17:47:58.914Z,95046.81
2018-08-19T17:50:28.844Z,95050.89
2018-08-19T17:52:58.991Z,95051.73
2018-08-19T17:55:28.059Z,95053.67
2018-08-19T17:57:58.359Z,95050.47
2018-08-19T18:00:27.267Z,95056.38
2018-08-19T18:02:56.219Z,95054.27
2018-08-19T18:05:25.158Z,95058.11
2018-08-19T18:07:54.946Z,95052.48
2018-08-19T18:10:23.758Z,95058.93
2018-08-19T18:12:52.851Z,95056.77
2018-08-19T18:15:23.415Z,95053.84
2018-08-19T18:18:01.675Z,95062.31
2018-08-19T18:20:36.626Z,95057.78
2018-08-19T18:23:07.887Z,95056.72
2018-08-19T18:25:36.680Z,95055.44
2018-08-19T18:28:11.465Z,95061.69
2018-08-19T18:30:40.401Z,95065.20
2018-08-19T18:33:09.581Z,95068.20
2018-08-19T18:35:38.391Z,95064.20
2018-08-19T18:38:17.044Z,95063.73
2018-08-19T18:40:46.034Z,95063.80
2018-08-19T18:43:14.885Z,95061.67
2018-08-19T18:45:46.607Z,95059.85
2018-08-19T18:48:16.090Z,95068.72
2018-08-19T18:50:44.913Z,95068.22
2018-08-19T18:53:13.774Z,95070.64
2018-08-19T18:55:42.830Z,95069.31
2018-08-19T18:58:11.737Z,95067.98
2018-08-19T19:01:00.359Z,95074.14
2018-08-19T19:03:29.302Z,95066.97
2018-08-19T19:05:58.506Z,95067.50
2018-08-19T19:08:27.287Z,95071.27
2018-08-19T19:11:10.718Z,95075.03
2018-08-19T19:13:39.526Z,95068.91
2018-08-19T19:16:08.943Z,95068.16
2018-08-19T19:18:37.737Z,95071.60
2018-08-19T19:21:07.256Z,95069.93
2018-08-19T19:23:37.590Z,95069.98
2018-08-19T19:26:07.596Z,95065.75
2018-08-19T19:28:36.459Z,95064.94
2018-08-19T19:31:11.106Z,95063.91
2018-08-19T19:33:39.878Z,95064.17
2018-08-19T19:36:13.970Z,95065.53
2018-08-19T19:38:54.164Z,95066.64
2018-08-19T19:41:28.058Z,95062.14
2018-08-19T19:43:56.869Z,95062.68
2018-08-19T19:46:26.002Z,95062.15
2018-08-19T19:48:55.190Z,95059.25
2018-08-19T19:51:24.020Z,95064.61
2018-08-19T19:53:52.839Z,95062.23
2018-08-19T19:56:21.627Z,95056.08
2018-08-19T19:58:51.968Z,95063.84
2018-08-19T20:01:20.821Z,95062.55
2018-08-19T20:03:54.920Z,95063.66
2018-08-19T20:06:24.189Z,95056.97
2018-08-19T20:08:53.374Z,95064.47
2018-08-19T20:11:30.263Z,95062.05
2018-08-19T20:14:00.764Z,95064.50
2018-08-19T20:16:29.568Z,95062.92
2018-08-19T20:18:58.382Z,95060.52
2018-08-19T20:21:28.443Z,95066.38
2018-08-19T20:23:58.402Z,95063.70
2018-08-19T20:26:27.691Z,95065.60
2018-08-19T20:28:58.679Z,95068.81
2018-08-19T20:31:27.523Z,95063.19
2018-08-19T20:33:56.371Z,95060.78
2018-08-19T20:36:25.597Z,95066.67
2018-08-19T20:38:54.446Z,95062.66
2018-08-19T20:41:23.290Z,95059.98
2018-08-19T20:43:52.182Z,95070.92
2018-08-19T20:46:21.024Z,95075.73
2018-08-19T20:48:49.910Z,95080.02
2018-08-19T20:51:18.730Z,95086.98
2018-08-19T20:53:47.542Z,95079.52
2018-08-19T20:56:16.334Z,95086.20
2018-08-19T20:58:45.177Z,95086.47
2018-08-19T21:01:19.296Z,95085.13
2018-08-19T21:03:48.082Z,95090.48
2018-08-19T21:06:16.913Z,95088.61
2018-08-19T21:08:45.699Z,95087.55
2018-08-19T21:11:14.494Z,95077.10
2018-08-19T21:13:43.292Z,95082.48
2018-08-19T21:16:12.066Z,95078.46
2018-08-19T21:18:40.925Z,95082.74
2018-08-19T21:21:09.778Z,95079.80
2018-08-19T21:23:38.641Z,95077.40
2018-08-19T21:26:07.551Z,95083.80
2018-08-19T21:28:36.362Z,95073.66
2018-08-19T21:31:11.766Z,95080.36
2018-08-19T21:33:40.608Z,95079.02
2018-08-19T21:36:09.552Z,95077.68
2018-08-19T21:38:38.342Z,95080.62
2018-08-19T21:41:07.122Z,95072.60
2018-08-19T21:43:35.937Z,95076.35
2018-08-19T21:46:04.804Z,95081.95
2018-08-19T21:48:33.591Z,95073.66
2018-08-19T21:51:02.385Z,95069.91
2018-08-19T21:53:31.174Z,95074.96
2018-08-19T21:55:59.944Z,95069.37
2018-08-19T21:58:28.796Z,95073.66
2018-08-19T22:01:02.503Z,95070.71
2018-08-19T22:03:51.938Z,95064.83
2018-08-19T22:06:20.763Z,95062.41
2018-08-19T22:08:49.609Z,95059.73
2018-08-19T22:11:18.465Z,95065.11
2018-08-19T22:13:47.307Z,95060.60
2018-08-19T22:16:16.119Z,95060.88
2018-08-19T22:18:45.011Z,95066.73
2018-08-19T22:21:18.917Z,95068.09
2018-08-19T22:23:50.138Z,95068.06
2018-08-19T22:26:20.024Z,95068.61
2018-08-19T22:29:51.815Z,95061.13
2018-08-19T22:32:20.683Z,95051.77
2018-08-19T22:34:49.510Z,95052.05
2018-08-19T22:37:18.364Z,95044.57
2018-08-19T22:39:48.153Z,95049.09
2018-08-19T22:42:17.133Z,95041.34
2018-08-19T22:44:46.097Z,95041.61
2018-08-19T22:47:14.886Z,95046.69
2018-08-19T22:49:43.711Z,95042.93
2018-08-19T22:52:19.896Z,95043.67
2018-08-19T22:54:50.424Z,95040.19
2018-08-19T22:57:19.253Z,95043.91
2018-08-19T22:59:48.091Z,95040.17
2018-08-19T23:02:17.291Z,95038.30
2018-08-19T23:04:46.831Z,95043.90
2018-08-19T23:07:15.713Z,95046.28
2018-08-19T23:09:44.573Z,95045.97
2018-08-19T23:12:13.344Z,95053.09
2018-08-19T23:14:53.074Z,95043.75
2018-08-19T23:17:22.255Z,95046.13
2018-08-19T23:19:51.964Z,95042.13
2018-08-19T23:22:20.816Z,95045.37
2018-08-19T23:24:49.624Z,95047.77
2018-08-19T23:27:18.390Z,95041.88
2018-08-19T23:29:47.215Z,95041.88
2018-08-19T23:32:16.090Z,95043.20
2018-08-19T23:34:44.854Z,95039.22
2018-08-19T23:37:13.606Z,95040.81
2018-08-19T23:39:42.402Z,95040.26
2018-08-19T23:42:11.198Z,95037.05
2018-08-19T23:44:40.048Z,95030.63
2018-08-19T23:47:08.872Z,95028.97
2018-08-19T23:49:37.663Z,95032.66
2018-08-19T23:52:06.550Z,95029.19
2018-08-19T23:54:35.355Z,95031.84
2018-08-19T23:57:04.493Z,95031.30
2018-08-19T23:59:35.935Z,95031.84
